createdAt,value
2018-05-17T00:01:21.544Z,16.03
2018-05-17T00:04:11.025Z,14.87
2018-05-17T00:07:02.761Z,17.23
2018-05-17T00:09:33.146Z,19.60
2018-05-17T00:12:03.536Z,16.33
2018-05-17T00:14:33.892Z,16.97
2018-05-17T00:17:05.016Z,19.93
2018-05-17T00:19:36.155Z,20.60
2018-05-17T00:22:07.308Z,16.43
2018-05-17T00:24:37.674Z,18.37
2018-05-17T00:27:14.211Z,22.53
2018-05-17T00:29:45.342Z,16.73
2018-05-17T00:32:15.719Z,22.93
2018-05-17T00:34:52.265Z,15.93
2018-05-17T00:37:22.643Z,19.30
2018-05-17T00:39:53.309Z,18.20
2018-05-17T00:42:24.482Z,19.00
2018-05-17T00:44:54.841Z,16.60
2018-05-17T00:47:25.213Z,16.73
2018-05-17T00:49:57.038Z,19.97
2018-05-17T00:52:27.475Z,18.37
2018-05-17T00:54:57.787Z,19.20
2018-05-17T00:57:28.452Z,16.70
2018-05-17T00:59:59.589Z,19.10
2018-05-17T01:02:30.718Z,20.70
2018-05-17T01:05:01.158Z,15.83
2018-05-17T01:07:32.291Z,18.23
2018-05-17T01:10:02.603Z,20.60
2018-05-17T01:12:32.991Z,17.67
2018-05-17T01:15:05.402Z,15.90
2018-05-17T01:17:35.784Z,16.83
2018-05-17T01:20:06.176Z,18.63
2018-05-17T01:22:37.307Z,20.27
2018-05-17T01:25:07.684Z,18.80
2018-05-17T01:27:38.300Z,22.13
2018-05-17T01:30:09.422Z,19.03
2018-05-17T01:32:40.559Z,19.73
2018-05-17T01:35:10.971Z,18.40
2018-05-17T01:38:29.637Z,17.07
2018-05-17T01:41:00.042Z,17.73
2018-05-17T01:43:30.409Z,19.83
2018-05-17T01:46:01.549Z,20.47
2018-05-17T01:48:32.727Z,17.60
2018-05-17T01:51:03.155Z,20.37
2018-05-17T01:53:33.461Z,19.37
2018-05-17T01:56:03.856Z,18.50
2018-05-17T01:58:34.226Z,19.63
2018-05-17T02:01:04.548Z,19.27
2018-05-17T02:03:34.937Z,19.53
2018-05-17T02:06:05.304Z,18.97
2018-05-17T02:08:35.668Z,19.57
2018-05-17T02:11:06.068Z,19.27
2018-05-17T02:13:36.441Z,24.60
2018-05-17T02:16:06.809Z,20.53
2018-05-17T02:18:37.998Z,21.30
2018-05-17T02:21:08.381Z,20.77
2018-05-17T02:23:38.761Z,19.93
2018-05-17T02:26:09.358Z,15.93
2018-05-17T02:28:44.050Z,20.13
2018-05-17T02:31:15.196Z,20.37
2018-05-17T02:33:46.367Z,23.00
2018-05-17T02:36:18.781Z,14.83
2018-05-17T02:38:49.155Z,19.57
2018-05-17T02:41:19.553Z,18.87
2018-05-17T02:43:50.691Z,19.03
2018-05-17T02:46:21.348Z,20.67
2018-05-17T02:48:51.756Z,21.07
2018-05-17T02:51:22.125Z,15.67
2018-05-17T02:56:37.782Z,24.10
2018-05-17T02:59:08.909Z,17.93
2018-05-17T03:01:39.287Z,22.23
2018-05-17T03:04:09.871Z,19.23
2018-05-17T03:06:40.532Z,21.80
2018-05-17T03:09:10.903Z,21.83
2018-05-17T03:11:41.313Z,19.27
2018-05-17T03:14:13.732Z,19.63
2018-05-17T03:16:44.387Z,17.73
2018-05-17T03:19:14.787Z,20.33
2018-05-17T03:21:45.165Z,18.40
2018-05-17T03:24:15.526Z,19.30
2018-05-17T03:26:46.208Z,17.67
2018-05-17T03:29:17.547Z,20.13
2018-05-17T03:31:48.675Z,20.20
2018-05-17T03:34:19.065Z,16.73
2018-05-17T03:36:56.600Z,21.50
2018-05-17T03:39:27.755Z,18.60
2018-05-17T03:41:59.556Z,17.70
2018-05-17T03:44:29.906Z,16.97
2018-05-17T03:47:00.248Z,14.43
2018-05-17T03:49:30.619Z,17.73
2018-05-17T03:52:00.990Z,15.80
2018-05-17T03:54:31.388Z,13.70
2018-05-17T03:57:07.891Z,17.90
2018-05-17T03:59:38.223Z,15.93
2018-05-17T04:03:03.325Z,17.87
2018-05-17T04:06:28.586Z,14.23
2018-05-17T04:08:58.946Z,21.90
2018-05-17T04:11:29.310Z,20.73
2018-05-17T04:14:00.652Z,19.77
2018-05-17T04:16:30.835Z,16.93
2018-05-17T04:19:04.269Z,16.10
2018-05-17T04:21:34.663Z,17.30
2018-05-17T04:24:08.051Z,15.77
2018-05-17T04:26:45.767Z,22.57
2018-05-17T04:29:16.202Z,23.33
2018-05-17T04:31:47.264Z,17.17
2018-05-17T04:34:18.423Z,18.73
2018-05-17T04:36:49.564Z,15.27
2018-05-17T04:39:21.661Z,20.40
2018-05-17T04:41:52.051Z,18.23
2018-05-17T04:44:23.411Z,17.10
2018-05-17T04:46:54.541Z,18.37
2018-05-17T04:49:24.946Z,16.47
2018-05-17T04:51:55.310Z,21.00
2018-05-17T04:54:26.458Z,16.57
2018-05-17T04:56:57.612Z,21.30
2018-05-17T04:59:27.973Z,20.17
2018-05-17T05:01:58.353Z,15.80
2018-05-17T05:04:29.540Z,18.77
2018-05-17T05:07:07.219Z,18.30
2018-05-17T05:09:39.653Z,21.43
2018-05-17T05:12:10.788Z,20.00
2018-05-17T05:14:41.444Z,19.17
2018-05-17T05:17:12.606Z,18.53
2018-05-17T05:19:42.976Z,15.87
2018-05-17T05:22:13.357Z,17.57
2018-05-17T05:24:43.743Z,18.07
2018-05-17T05:27:14.123Z,20.00
2018-05-17T05:29:44.508Z,20.30
2018-05-17T05:32:14.902Z,21.87
2018-05-17T05:34:45.275Z,20.17
2018-05-17T05:37:16.416Z,19.93
2018-05-17T05:39:48.678Z,16.60
2018-05-17T05:42:19.704Z,16.40
2018-05-17T05:44:50.025Z,19.30
2018-05-17T05:47:20.687Z,17.03
2018-05-17T05:49:51.818Z,18.03
2018-05-17T05:52:22.958Z,18.77
2018-05-17T05:54:54.125Z,19.13
2018-05-17T05:57:25.445Z,17.77
2018-05-17T05:59:55.820Z,17.10
2018-05-17T06:02:28.337Z,23.37
2018-05-17T06:04:58.641Z,20.03
2018-05-17T06:07:31.063Z,19.73
2018-05-17T06:10:02.219Z,18.47
2018-05-17T06:12:33.362Z,13.53
2018-05-17T06:15:03.735Z,19.30
2018-05-17T06:17:34.131Z,20.23
2018-05-17T06:20:04.503Z,18.83
2018-05-17T06:22:34.882Z,12.37
2018-05-17T06:25:05.281Z,18.60
2018-05-17T06:27:35.665Z,16.03
2018-05-17T06:30:08.093Z,17.60
2018-05-17T06:32:39.608Z,21.90
2018-05-17T06:35:10.716Z,23.12
2018-05-17T06:37:44.171Z,18.77
2018-05-17T06:40:14.570Z,17.37
2018-05-17T06:42:44.956Z,16.03
2018-05-17T06:45:15.336Z,22.50
2018-05-17T06:47:45.747Z,12.57
2018-05-17T06:50:16.114Z,18.03
2018-05-17T06:52:47.954Z,18.93
2018-05-17T06:55:18.352Z,19.50
2018-05-17T06:57:48.919Z,18.27
2018-05-17T07:00:20.779Z,18.17
2018-05-17T07:02:51.163Z,16.37
2018-05-17T07:08:11.849Z,15.33
2018-05-17T07:10:43.673Z,15.27
2018-05-17T07:13:14.063Z,16.23
2018-05-17T07:15:44.474Z,14.90
2018-05-17T07:18:14.895Z,16.67
2018-05-17T07:20:47.280Z,15.60
2018-05-17T07:23:19.718Z,16.87
2018-05-17T07:25:51.506Z,15.83
2018-05-17T07:28:21.878Z,15.30
2018-05-17T07:30:52.216Z,21.53
2018-05-17T07:33:22.590Z,16.63
2018-05-17T07:35:52.955Z,18.23
2018-05-17T07:38:23.347Z,15.23
2018-05-17T07:40:53.730Z,17.60
2018-05-17T07:43:24.870Z,17.13
2018-05-17T07:45:55.266Z,17.67
2018-05-17T07:48:25.630Z,17.67
2018-05-17T07:50:56.759Z,13.30
2018-05-17T07:53:27.152Z,17.07
2018-05-17T07:55:57.548Z,18.10
2018-05-17T07:58:27.872Z,17.20
2018-05-17T08:00:58.274Z,11.27
2018-05-17T08:03:28.651Z,15.67
2018-05-17T08:05:59.046Z,18.97
2018-05-17T08:08:29.440Z,16.43
2018-05-17T08:11:01.509Z,10.80
2018-05-17T08:13:31.880Z,15.03
2018-05-17T08:16:02.289Z,13.53
2018-05-17T08:18:33.428Z,17.23
2018-05-17T08:21:03.795Z,19.87
2018-05-17T08:23:34.205Z,14.07
2018-05-17T08:26:04.581Z,19.83
2018-05-17T08:28:34.952Z,14.33
2018-05-17T08:31:05.353Z,15.80
2018-05-17T08:33:35.723Z,11.23
2018-05-17T08:36:06.138Z,18.23
2018-05-17T08:38:37.468Z,14.97
2018-05-17T08:41:08.604Z,12.80
2018-05-17T08:43:39.744Z,15.43
2018-05-17T08:46:10.919Z,14.27
2018-05-17T08:48:41.294Z,17.90
2018-05-17T08:51:11.609Z,12.20
2018-05-17T08:53:42.005Z,11.73
2018-05-17T08:56:12.379Z,19.17
2018-05-17T08:58:42.756Z,12.27
2018-05-17T09:01:15.195Z,17.23
2018-05-17T09:03:45.555Z,13.83
2018-05-17T09:06:15.978Z,12.53
2018-05-17T09:08:46.282Z,14.67
2018-05-17T09:11:16.853Z,14.83
2018-05-17T09:14:06.355Z,14.10
2018-05-17T09:16:36.931Z,17.83
2018-05-17T09:19:07.313Z,13.00
2018-05-17T09:21:37.716Z,15.97
2018-05-17T09:24:08.083Z,16.73
2018-05-17T09:26:39.232Z,14.83
2018-05-17T09:29:10.451Z,11.93
2018-05-17T09:31:41.503Z,15.53
2018-05-17T09:34:11.871Z,13.50
2018-05-17T09:36:42.267Z,14.13
2018-05-17T09:39:12.647Z,12.70
2018-05-17T09:41:43.027Z,15.53
2018-05-17T09:44:13.625Z,15.97
2018-05-17T09:46:43.995Z,12.97
2018-05-17T09:49:15.138Z,13.77
2018-05-17T09:51:46.310Z,14.53
2018-05-17T09:54:16.698Z,14.17
2018-05-17T09:56:47.830Z,15.03
2018-05-17T09:59:18.179Z,11.63
2018-05-17T10:01:48.545Z,14.67
2018-05-17T10:04:39.342Z,13.63
2018-05-17T10:07:09.727Z,11.67
2018-05-17T10:09:40.871Z,13.00
2018-05-17T10:12:11.253Z,15.17
2018-05-17T10:14:41.706Z,16.53
2018-05-17T10:17:12.010Z,12.07
2018-05-17T10:19:42.399Z,14.40
2018-05-17T10:22:13.415Z,13.87
2018-05-17T10:24:44.544Z,13.47
2018-05-17T10:27:14.948Z,14.80
2018-05-17T10:29:45.314Z,12.10
2018-05-17T10:32:15.697Z,21.07
2018-05-17T10:34:52.240Z,13.13
2018-05-17T10:37:22.611Z,13.50
2018-05-17T10:39:53.002Z,17.77
2018-05-17T10:42:25.632Z,13.63
2018-05-17T10:44:56.008Z,14.17
2018-05-17T10:47:26.380Z,13.50
2018-05-17T10:49:56.782Z,10.13
2018-05-17T10:52:30.230Z,12.63
2018-05-17T10:55:00.610Z,13.80
2018-05-17T10:57:31.002Z,13.27
2018-05-17T11:00:01.376Z,15.30
2018-05-17T11:02:31.694Z,14.37
2018-05-17T11:05:02.103Z,14.70
2018-05-17T11:07:32.681Z,15.30
2018-05-17T11:10:03.828Z,21.10
2018-05-17T11:12:34.994Z,15.73
2018-05-17T11:15:05.312Z,16.50
2018-05-17T11:17:35.682Z,15.63
2018-05-17T11:22:53.295Z,13.10
2018-05-17T11:25:23.680Z,10.00
2018-05-17T11:27:54.061Z,11.87
2018-05-17T11:30:24.440Z,13.47
2018-05-17T11:32:54.907Z,13.17
2018-05-17T11:35:25.275Z,13.93
2018-05-17T11:37:55.660Z,10.13
2018-05-17T11:40:26.060Z,11.60
2018-05-17T11:42:57.201Z,10.87
2018-05-17T11:45:28.329Z,13.33
2018-05-17T11:47:58.731Z,11.67
2018-05-17T11:50:29.195Z,13.80
2018-05-17T11:53:00.242Z,11.47
2018-05-17T11:55:31.407Z,13.33
2018-05-17T11:58:02.506Z,15.30
2018-05-17T12:00:32.891Z,13.77
2018-05-17T12:03:03.978Z,12.57
2018-05-17T12:05:34.358Z,11.37
2018-05-17T12:08:06.773Z,11.13
2018-05-17T12:10:37.175Z,16.60
2018-05-17T12:13:11.632Z,9.27
2018-05-17T12:15:42.025Z,12.40
2018-05-17T12:18:12.394Z,9.73
2018-05-17T12:20:42.769Z,11.70
2018-05-17T12:23:13.171Z,10.97
2018-05-17T12:25:43.566Z,12.73
2018-05-17T12:28:13.931Z,9.47
2018-05-17T12:30:44.326Z,8.50
2018-05-17T12:33:15.464Z,11.73
2018-05-17T12:35:45.825Z,9.67
2018-05-17T12:38:16.229Z,8.33
2018-05-17T12:40:47.367Z,8.20
2018-05-17T12:43:17.742Z,12.60
2018-05-17T12:45:48.134Z,6.87
2018-05-17T12:48:19.271Z,10.20
2018-05-17T12:50:49.661Z,10.50
2018-05-17T12:53:25.188Z,13.97
2018-05-17T12:55:58.634Z,8.87
2018-05-17T12:58:29.871Z,11.77
2018-05-17T13:01:00.183Z,10.57
2018-05-17T13:03:30.554Z,12.57
2018-05-17T13:06:00.917Z,8.47
2018-05-17T13:08:31.303Z,7.80
2018-05-17T13:11:01.877Z,11.33
2018-05-17T13:13:36.364Z,8.80
2018-05-17T13:16:06.736Z,13.47
2018-05-17T13:18:39.142Z,11.33
2018-05-17T13:21:09.738Z,11.77
2018-05-17T13:23:42.453Z,10.93
2018-05-17T13:26:12.523Z,10.43
2018-05-17T13:28:42.946Z,10.87
2018-05-17T13:31:14.340Z,12.67
2018-05-17T13:33:44.706Z,9.60
2018-05-17T13:36:15.102Z,12.27
2018-05-17T13:38:46.236Z,10.17
2018-05-17T13:41:16.607Z,10.30
2018-05-17T13:43:47.641Z,8.80
2018-05-17T13:46:18.023Z,10.33
2018-05-17T13:48:49.271Z,9.60
2018-05-17T13:51:19.663Z,9.13
2018-05-17T13:53:52.090Z,9.00
2018-05-17T13:56:22.390Z,11.73
2018-05-17T13:58:52.803Z,8.67
2018-05-17T14:01:24.186Z,6.67
2018-05-17T14:03:55.272Z,10.33
2018-05-17T14:06:27.716Z,9.50
2018-05-17T14:09:00.068Z,8.37
2018-05-17T14:11:30.439Z,9.50
2018-05-17T14:14:00.825Z,9.10
2018-05-17T14:16:32.156Z,10.73
2018-05-17T14:19:02.525Z,9.83
2018-05-17T14:21:32.916Z,7.87
2018-05-17T14:24:03.285Z,11.30
2018-05-17T14:26:33.657Z,10.87
2018-05-17T14:29:04.049Z,9.17
2018-05-17T14:31:34.423Z,12.37
2018-05-17T14:34:04.804Z,11.70
2018-05-17T14:36:35.888Z,9.97
2018-05-17T14:39:08.878Z,8.00
2018-05-17T14:41:39.248Z,7.60
2018-05-17T14:44:09.662Z,11.57
2018-05-17T14:46:40.803Z,11.77
2018-05-17T14:49:11.181Z,7.27
2018-05-17T14:51:42.544Z,11.67
2018-05-17T14:54:12.922Z,12.30
2018-05-17T14:56:43.299Z,10.17
2018-05-17T14:59:13.703Z,8.63
2018-05-17T15:01:46.117Z,9.13
2018-05-17T15:04:16.490Z,10.47
2018-05-17T15:06:46.897Z,8.77
2018-05-17T15:09:17.265Z,12.37
2018-05-17T15:11:48.661Z,13.53
2018-05-17T15:14:19.042Z,11.67
2018-05-17T15:16:50.437Z,7.10
2018-05-17T15:19:20.997Z,7.40
2018-05-17T15:21:52.417Z,10.40
2018-05-17T15:24:23.554Z,9.97
2018-05-17T15:26:53.914Z,8.93
2018-05-17T15:29:24.329Z,12.37
2018-05-17T15:31:54.699Z,8.53
2018-05-17T15:37:09.031Z,8.47
2018-05-17T15:39:39.398Z,9.57
2018-05-17T15:42:09.764Z,11.87
2018-05-17T15:44:40.920Z,7.77
2018-05-17T15:47:11.291Z,13.80
2018-05-17T15:49:41.659Z,10.13
2018-05-17T15:52:12.819Z,7.83
2018-05-17T15:54:43.129Z,7.37
2018-05-17T15:57:14.257Z,8.97
2018-05-17T15:59:44.653Z,8.37
2018-05-17T16:02:15.025Z,12.87
2018-05-17T16:04:46.153Z,9.40
2018-05-17T16:07:17.530Z,8.10
2018-05-17T16:09:47.902Z,9.17
2018-05-17T16:12:18.284Z,10.43
2018-05-17T16:14:48.726Z,7.13
2018-05-17T16:17:19.817Z,9.33
2018-05-17T16:19:50.196Z,7.13
2018-05-17T16:22:20.595Z,11.60
2018-05-17T16:24:51.734Z,13.43
2018-05-17T16:27:22.073Z,11.13
2018-05-17T16:29:53.248Z,18.57
2018-05-17T16:32:45.835Z,13.18
2018-05-17T16:35:17.225Z,7.70
2018-05-17T16:37:47.590Z,6.80
2018-05-17T16:40:17.973Z,10.07
2018-05-17T16:42:48.472Z,8.20
2018-05-17T16:45:19.517Z,8.20
2018-05-17T16:47:50.663Z,12.10
2018-05-17T16:50:21.832Z,8.30
2018-05-17T16:52:52.409Z,11.93
2018-05-17T16:55:22.571Z,9.17
2018-05-17T16:57:53.745Z,12.33
2018-05-17T17:00:24.109Z,11.77
2018-05-17T17:02:54.483Z,6.00
2018-05-17T17:05:24.897Z,12.90
2018-05-17T17:07:55.266Z,9.40
2018-05-17T17:10:47.830Z,7.37
2018-05-17T17:13:18.196Z,11.60
2018-05-17T17:15:50.344Z,8.47
2018-05-17T17:18:21.448Z,9.13
2018-05-17T17:20:51.816Z,13.10
2018-05-17T17:23:22.957Z,9.40
2018-05-17T17:25:53.354Z,11.13
2018-05-17T17:28:23.672Z,8.07
2018-05-17T17:30:56.185Z,12.30
2018-05-17T17:33:26.483Z,15.47
2018-05-17T17:35:56.856Z,12.27
2018-05-17T17:38:27.984Z,8.43
2018-05-17T17:40:59.165Z,13.03
2018-05-17T17:43:29.517Z,8.87
2018-05-17T17:45:59.893Z,9.83
2018-05-17T17:48:31.048Z,9.23
2018-05-17T17:51:01.421Z,10.43
2018-05-17T17:53:31.730Z,6.67
2018-05-17T17:56:23.279Z,9.80
2018-05-17T17:58:53.663Z,7.90
2018-05-17T18:01:24.023Z,6.50
2018-05-17T18:03:54.414Z,6.27
2018-05-17T18:06:24.783Z,9.93
2018-05-17T18:08:55.155Z,10.27
2018-05-17T18:11:25.537Z,12.07
2018-05-17T18:13:55.850Z,11.67
2018-05-17T18:16:26.224Z,6.50
2018-05-17T18:18:59.442Z,6.60
2018-05-17T18:21:32.889Z,9.73
2018-05-17T18:24:03.266Z,13.87
2018-05-17T18:26:34.690Z,7.87
2018-05-17T18:29:05.316Z,9.43
2018-05-17T18:31:38.498Z,10.03
2018-05-17T18:34:09.653Z,8.50
2018-05-17T18:36:40.812Z,13.03
2018-05-17T18:39:12.632Z,6.30
2018-05-17T18:41:43.028Z,10.63
2018-05-17T18:44:34.815Z,6.60
2018-05-17T18:47:05.984Z,11.83
2018-05-17T18:49:36.594Z,10.47
2018-05-17T18:52:07.742Z,12.73
2018-05-17T18:54:38.979Z,8.63
2018-05-17T18:57:09.262Z,10.40
2018-05-17T18:59:39.631Z,7.07
2018-05-17T19:02:10.800Z,9.83
2018-05-17T19:04:41.162Z,10.07
2018-05-17T19:07:11.531Z,7.63
2018-05-17T19:09:42.689Z,9.83
2018-05-17T19:12:13.051Z,10.27
2018-05-17T19:14:43.414Z,9.53
2018-05-17T19:17:14.575Z,13.00
2018-05-17T19:19:45.711Z,14.00
2018-05-17T19:22:16.080Z,6.77
2018-05-17T19:25:06.859Z,13.53
2018-05-17T19:27:37.230Z,10.33
2018-05-17T19:30:07.595Z,6.90
2018-05-17T19:32:38.005Z,11.17
2018-05-17T19:35:09.141Z,11.40
2018-05-17T19:37:39.504Z,7.63
2018-05-17T19:40:09.842Z,8.90
2018-05-17T19:42:40.226Z,10.83
2018-05-17T19:47:53.786Z,15.18
2018-05-17T19:50:24.918Z,11.93
2018-05-17T19:52:55.292Z,8.17
2018-05-17T19:55:25.613Z,8.47
2018-05-17T19:57:55.987Z,14.33
2018-05-17T20:00:26.545Z,10.73
2018-05-17T20:02:57.716Z,9.43
2018-05-17T20:05:28.075Z,9.30
2018-05-17T20:07:58.650Z,7.17
2018-05-17T20:10:29.806Z,13.83
2018-05-17T20:13:00.173Z,10.90
2018-05-17T20:15:31.501Z,9.47
2018-05-17T20:18:05.986Z,6.87
2018-05-17T20:20:37.122Z,9.93
2018-05-17T20:23:08.263Z,11.83
2018-05-17T20:25:38.605Z,10.53
2018-05-17T20:28:08.978Z,11.03
2018-05-17T20:31:00.792Z,9.97
2018-05-17T20:33:33.215Z,11.93
2018-05-17T20:36:03.574Z,8.57
2018-05-17T20:38:33.981Z,8.43
2018-05-17T20:41:05.120Z,9.83
2018-05-17T20:43:36.258Z,11.93
2018-05-17T20:46:06.663Z,10.47
2018-05-17T20:48:37.049Z,12.63
2018-05-17T20:51:07.413Z,8.47
2018-05-17T20:53:37.804Z,9.70
2018-05-17T20:56:08.164Z,9.30
2018-05-17T20:58:38.543Z,10.03
2018-05-17T21:01:08.929Z,9.57
2018-05-17T21:03:39.296Z,6.17
2018-05-17T21:06:10.425Z,14.07
2018-05-17T21:08:40.818Z,12.53
2018-05-17T21:11:11.191Z,12.90
2018-05-17T21:13:41.554Z,9.57
2018-05-17T21:16:12.240Z,12.43
2018-05-17T21:18:43.379Z,12.33
2018-05-17T21:21:14.508Z,8.70
2018-05-17T21:23:44.901Z,7.70
2018-05-17T21:26:21.400Z,13.83
2018-05-17T21:28:51.782Z,13.03
2018-05-17T21:31:22.150Z,10.17
2018-05-17T21:33:52.552Z,14.07
2018-05-17T21:36:22.913Z,8.23
2018-05-17T21:38:53.280Z,9.80
2018-05-17T21:41:23.897Z,5.97
2018-05-17T21:43:55.797Z,13.03
2018-05-17T21:46:46.304Z,11.17
2018-05-17T21:49:16.697Z,10.70
2018-05-17T21:51:47.062Z,8.30
2018-05-17T21:54:36.847Z,12.07
2018-05-17T21:57:07.203Z,11.30
2018-05-17T21:59:38.348Z,11.90
2018-05-17T22:02:10.532Z,11.23
2018-05-17T22:04:41.663Z,13.57
2018-05-17T22:07:15.731Z,12.13
2018-05-17T22:09:46.134Z,10.00
2018-05-17T22:12:16.498Z,18.33
2018-05-17T22:14:46.865Z,11.50
2018-05-17T22:17:18.021Z,9.93
2018-05-17T22:19:48.411Z,10.97
2018-05-17T22:22:18.776Z,8.13
2018-05-17T22:24:50.200Z,10.13
2018-05-17T22:27:21.335Z,12.03
2018-05-17T22:29:51.715Z,13.10
2018-05-17T22:32:28.253Z,10.07
2018-05-17T22:34:59.400Z,10.77
2018-05-17T22:37:30.543Z,14.40
2018-05-17T22:40:01.707Z,13.17
2018-05-17T22:42:32.069Z,8.90
2018-05-17T22:45:02.436Z,9.17
2018-05-17T22:47:33.069Z,9.23
2018-05-17T22:50:04.217Z,16.47
2018-05-17T22:52:34.582Z,12.43
2018-05-17T22:55:08.044Z,12.37
2018-05-17T22:58:33.060Z,11.87
2018-05-17T23:01:03.475Z,14.43
2018-05-17T23:03:34.624Z,12.17
2018-05-17T23:06:05.003Z,11.60
2018-05-17T23:08:35.398Z,11.90
2018-05-17T23:11:07.821Z,11.27
2018-05-17T23:13:38.195Z,10.23
2018-05-17T23:16:09.609Z,14.00
2018-05-17T23:18:40.737Z,9.80
2018-05-17T23:21:11.064Z,12.00
2018-05-17T23:23:41.462Z,11.50
2018-05-17T23:26:11.847Z,12.17
2018-05-17T23:28:42.212Z,10.47
2018-05-17T23:31:12.607Z,11.33
2018-05-17T23:33:42.922Z,9.87
2018-05-17T23:36:14.050Z,11.40
2018-05-17T23:38:45.211Z,11.90
2018-05-17T23:41:45.786Z,8.93
2018-05-17T23:44:23.503Z,14.30
2018-05-17T23:46:53.874Z,11.27
2018-05-17T23:49:24.247Z,9.90
2018-05-17T23:51:55.656Z,11.10
2018-05-17T23:54:25.983Z,11.17
2018-05-17T23:56:56.348Z,11.50
2018-05-17T23:59:27.767Z,13.30
